createdAt,value
2022-11-25T00:01:06.595Z,101067.75
2022-11-25T00:03:35.697Z,101062.97
2022-11-25T00:06:13.109Z,101075.63
2022-11-25T00:08:41.765Z,101074.50
2022-11-25T00:11:10.145Z,101064.69
2022-11-25T00:13:39.190Z,101071.97
2022-11-25T00:16:09.294Z,101072.06
2022-11-25T00:18:37.654Z,101069.47
2022-11-25T00:21:07.349Z,101066.03
2022-11-25T00:23:37.268Z,101067.06
2022-11-25T00:26:12.536Z,101064.69
2022-11-25T00:28:40.914Z,101056.69
2022-11-25T00:31:10.609Z,101043.63
2022-11-25T00:33:38.841Z,101046.44
2022-11-25T00:36:09.800Z,101038.25
2022-11-25T00:38:39.060Z,101029.09
2022-11-25T00:41:24.616Z,101040.78
2022-11-25T00:44:10.047Z,101036.63
2022-11-25T00:46:38.028Z,101035.59
2022-11-25T00:49:05.962Z,101041.06
2022-11-25T00:51:33.859Z,101033.88
2022-11-25T00:54:03.149Z,101039.53
2022-11-25T00:56:31.468Z,101034.34
2022-11-25T00:58:59.393Z,101042.22
2022-11-25T01:01:27.529Z,101037.19
2022-11-25T01:03:55.759Z,101032.88
2022-11-25T01:06:23.910Z,101035.56
2022-11-25T01:08:51.960Z,101033.81
2022-11-25T01:11:23.687Z,101036.78
2022-11-25T01:13:59.340Z,101038.69
2022-11-25T01:16:29.169Z,101040.19
2022-11-25T01:18:57.176Z,101048.84
2022-11-25T01:21:26.400Z,101034.72
2022-11-25T01:23:54.736Z,101038.28
2022-11-25T01:26:25.609Z,101043.47
2022-11-25T01:28:56.230Z,101049.88
2022-11-25T01:31:25.894Z,101044.69
2022-11-25T01:33:56.343Z,101051.19
2022-11-25T01:36:24.638Z,101045.63
2022-11-25T01:38:53.944Z,101052.91
2022-11-25T01:41:23.865Z,101055.88
2022-11-25T01:44:09.128Z,101063.22
2022-11-25T01:47:00.173Z,101055.78
2022-11-25T01:49:31.827Z,101052.38
2022-11-25T01:52:04.399Z,101055.53
2022-11-25T01:54:35.814Z,101049.03
2022-11-25T01:57:08.031Z,101061.25
2022-11-25T01:59:40.895Z,101062.22
2022-11-25T02:02:09.794Z,101062.22
2022-11-25T02:04:39.435Z,101056.91
2022-11-25T02:07:11.829Z,101065.38
2022-11-25T02:09:40.675Z,101052.09
2022-11-25T02:12:10.439Z,101052.78
2022-11-25T02:14:38.589Z,101041.47
2022-11-25T02:17:06.684Z,101036.44
2022-11-25T02:19:44.612Z,101034.09
2022-11-25T02:22:19.387Z,101033.81
2022-11-25T02:24:48.229Z,101032.72
2022-11-25T02:27:18.018Z,101043.44
2022-11-25T02:29:46.095Z,101042.47
2022-11-25T02:32:13.964Z,101040.66
2022-11-25T02:34:48.239Z,101043.19
2022-11-25T02:37:17.154Z,101043.78
2022-11-25T02:39:45.158Z,101047.06
2022-11-25T02:42:13.392Z,101042.56
2022-11-25T02:44:42.653Z,101044.22
2022-11-25T02:47:10.560Z,101046.38
2022-11-25T02:49:38.445Z,101039.38
2022-11-25T02:52:06.372Z,101044.66
2022-11-25T02:54:34.571Z,101036.88
2022-11-25T02:57:02.648Z,101036.28
2022-11-25T02:59:30.544Z,101033.44
2022-11-25T03:01:59.901Z,101039.63
2022-11-25T03:04:27.876Z,101036.09
2022-11-25T03:06:55.765Z,101047.66
2022-11-25T03:09:23.704Z,101044.81
2022-11-25T03:12:09.516Z,101051.91
2022-11-25T03:14:37.699Z,101047.94
2022-11-25T03:17:07.199Z,101050.63
2022-11-25T03:19:35.172Z,101050.00
2022-11-25T03:22:03.169Z,101052.78
2022-11-25T03:24:31.074Z,101048.25
2022-11-25T03:26:59.005Z,101053.19
2022-11-25T03:29:26.901Z,101039.63
2022-11-25T03:31:54.882Z,101045.78
2022-11-25T03:34:24.160Z,101041.53
2022-11-25T03:36:52.137Z,101040.59
2022-11-25T03:39:20.057Z,101040.81
2022-11-25T03:41:47.992Z,101043.59
2022-11-25T03:44:16.096Z,101036.16
2022-11-25T03:46:43.971Z,101036.72
2022-11-25T03:49:11.888Z,101024.84
2022-11-25T03:51:41.154Z,101025.03
2022-11-25T03:54:09.123Z,101037.66
2022-11-25T03:56:37.073Z,101033.31
2022-11-25T03:59:04.963Z,101027.03
2022-11-25T04:01:33.005Z,101034.81
2022-11-25T04:04:01.952Z,101031.34
2022-11-25T04:06:30.013Z,101035.75
2022-11-25T04:08:59.575Z,101033.16
2022-11-25T04:11:47.562Z,101034.69
2022-11-25T04:14:14.447Z,101029.34
2022-11-25T04:16:42.490Z,101022.88
2022-11-25T04:19:10.385Z,101024.69
2022-11-25T04:21:38.435Z,101018.44
2022-11-25T04:24:08.784Z,101021.31
2022-11-25T04:26:36.712Z,101018.28
2022-11-25T04:29:04.908Z,101017.56
2022-11-25T04:31:32.905Z,101012.81
2022-11-25T04:34:00.784Z,101014.66
2022-11-25T04:36:28.703Z,101016.97
2022-11-25T04:38:56.656Z,101012.22
2022-11-25T04:41:25.941Z,101015.75
2022-11-25T04:43:53.883Z,101036.94
2022-11-25T04:46:24.022Z,101041.34
2022-11-25T04:48:52.511Z,101043.78
2022-11-25T04:51:20.483Z,101047.34
2022-11-25T04:53:48.436Z,101051.75
2022-11-25T04:56:18.729Z,101053.47
2022-11-25T04:59:05.858Z,101053.03
2022-11-25T05:01:33.780Z,101046.03
2022-11-25T05:04:01.864Z,101047.00
2022-11-25T05:06:29.763Z,101052.25
2022-11-25T05:08:57.629Z,101056.75
2022-11-25T05:11:25.528Z,101050.72
2022-11-25T05:13:54.851Z,101057.53
2022-11-25T05:16:22.795Z,101057.34
2022-11-25T05:18:50.704Z,101043.44
2022-11-25T05:21:18.644Z,101041.34
2022-11-25T05:23:46.508Z,101052.50
2022-11-25T05:26:14.487Z,101050.31
2022-11-25T05:28:42.475Z,101052.84
2022-11-25T05:31:11.837Z,101052.16
2022-11-25T05:33:39.829Z,101048.00
2022-11-25T05:36:08.284Z,101043.69
2022-11-25T05:38:36.199Z,101039.19
2022-11-25T05:41:06.097Z,101043.69
2022-11-25T05:43:34.396Z,101031.34
2022-11-25T05:46:05.976Z,101029.53
2022-11-25T05:48:35.351Z,101035.94
2022-11-25T05:51:03.840Z,101034.03
2022-11-25T05:53:32.468Z,101035.59
2022-11-25T05:56:02.136Z,101027.13
2022-11-25T05:58:30.323Z,101026.69
2022-11-25T06:00:58.307Z,101025.63
2022-11-25T06:03:26.615Z,101028.22
2022-11-25T06:05:56.916Z,101029.84
2022-11-25T06:08:24.810Z,101035.84
2022-11-25T06:10:52.833Z,101029.00
2022-11-25T06:13:20.868Z,101024.19
2022-11-25T06:15:49.114Z,101033.00
2022-11-25T06:18:18.152Z,101033.78
2022-11-25T06:20:46.125Z,101034.72
2022-11-25T06:23:15.423Z,101042.09
2022-11-25T06:25:43.360Z,101041.16
2022-11-25T06:28:13.111Z,101048.59
2022-11-25T06:30:41.497Z,101050.22
2022-11-25T06:33:09.495Z,101046.56
2022-11-25T06:35:37.787Z,101051.94
2022-11-25T06:38:05.689Z,101058.88
2022-11-25T06:40:34.995Z,101061.72
2022-11-25T06:43:02.901Z,101059.16
2022-11-25T06:45:31.045Z,101054.44
2022-11-25T06:47:59.124Z,101059.47
2022-11-25T06:50:27.056Z,101051.69
2022-11-25T06:52:54.954Z,101041.72
2022-11-25T06:55:22.931Z,101046.81
2022-11-25T06:57:55.928Z,101050.38
2022-11-25T07:00:36.220Z,101047.25
2022-11-25T07:03:04.156Z,101060.31
2022-11-25T07:05:32.256Z,101064.03
2022-11-25T07:08:00.225Z,101067.00
2022-11-25T07:10:28.265Z,101066.13
2022-11-25T07:12:59.469Z,101063.06
2022-11-25T07:15:27.396Z,101067.47
2022-11-25T07:17:55.307Z,101063.06
2022-11-25T07:20:25.284Z,101068.00
2022-11-25T07:22:53.179Z,101075.34
2022-11-25T07:25:21.132Z,101070.84
2022-11-25T07:27:49.079Z,101072.31
2022-11-25T07:31:21.108Z,101082.94
2022-11-25T07:33:07.083Z,101094.28
2022-11-25T07:35:35.331Z,101094.88
2022-11-25T07:38:03.527Z,101086.91
2022-11-25T07:40:31.411Z,101101.00
2022-11-25T07:42:59.409Z,101100.81
2022-11-25T07:45:28.690Z,101100.94
2022-11-25T07:47:56.612Z,101096.59
2022-11-25T07:50:24.499Z,101096.84
2022-11-25T07:52:52.418Z,101106.00
2022-11-25T07:55:20.319Z,101100.56
2022-11-25T07:57:48.194Z,101105.19
2022-11-25T08:00:17.215Z,101101.06
2022-11-25T08:02:46.522Z,101104.91
2022-11-25T08:05:14.492Z,101108.16
2022-11-25T08:07:42.416Z,101110.63
2022-11-25T08:10:11.547Z,101113.31
2022-11-25T08:12:39.429Z,101112.78
2022-11-25T08:15:08.426Z,101115.28
2022-11-25T08:17:36.396Z,101118.94
2022-11-25T08:20:07.136Z,101116.34
2022-11-25T08:22:35.056Z,101116.94
2022-11-25T08:25:03.011Z,101122.78
2022-11-25T08:27:30.987Z,101129.03
2022-11-25T08:29:58.908Z,101116.47
2022-11-25T08:32:26.811Z,101116.00
2022-11-25T08:34:54.727Z,101123.19
2022-11-25T08:37:24.075Z,101129.59
2022-11-25T08:39:53.512Z,101132.78
2022-11-25T08:42:21.884Z,101135.84
2022-11-25T08:44:53.979Z,101139.03
2022-11-25T08:47:21.916Z,101140.75
2022-11-25T08:49:52.175Z,101128.19
2022-11-25T08:52:20.199Z,101141.03
2022-11-25T08:54:49.489Z,101133.66
2022-11-25T08:57:17.836Z,101137.00
2022-11-25T08:59:45.729Z,101137.13
2022-11-25T09:02:14.493Z,101137.88
2022-11-25T09:04:42.480Z,101139.63
2022-11-25T09:07:10.704Z,101146.53
2022-11-25T09:09:38.831Z,101143.84
2022-11-25T09:12:08.612Z,101151.13
2022-11-25T09:14:36.637Z,101141.91
2022-11-25T09:17:10.067Z,101148.91
2022-11-25T09:19:38.225Z,101157.19
2022-11-25T09:22:06.406Z,101152.47
2022-11-25T09:24:35.558Z,101156.16
2022-11-25T09:27:03.422Z,101158.44
2022-11-25T09:29:32.750Z,101158.44
2022-11-25T09:32:00.802Z,101166.25
2022-11-25T09:34:28.736Z,101167.91
2022-11-25T09:36:56.661Z,101165.28
2022-11-25T09:39:30.994Z,101162.59
2022-11-25T09:42:28.506Z,101166.06
2022-11-25T09:45:22.803Z,101166.16
2022-11-25T09:47:58.058Z,101166.16
2022-11-25T09:50:35.420Z,101166.06
2022-11-25T09:53:07.999Z,101164.94
2022-11-25T09:55:39.685Z,101161.06
2022-11-25T09:58:18.646Z,101161.88
2022-11-25T10:00:49.513Z,101157.91
2022-11-25T10:03:25.641Z,101160.34
2022-11-25T10:06:03.413Z,101156.59
2022-11-25T10:08:34.181Z,101162.72
2022-11-25T10:11:05.045Z,101163.41
2022-11-25T10:13:39.785Z,101168.56
2022-11-25T10:16:19.932Z,101170.31
2022-11-25T10:18:56.504Z,101169.25
2022-11-25T10:21:24.412Z,101170.69
2022-11-25T10:23:52.312Z,101181.34
2022-11-25T10:26:24.476Z,101179.44
2022-11-25T10:28:56.849Z,101176.75
2022-11-25T10:31:30.396Z,101176.53
2022-11-25T10:34:00.033Z,101183.75
2022-11-25T10:36:29.464Z,101184.53
2022-11-25T10:38:59.554Z,101180.00
2022-11-25T10:41:30.533Z,101179.91
2022-11-25T10:43:58.508Z,101175.28
2022-11-25T10:46:57.073Z,101183.28
2022-11-25T10:49:28.646Z,101175.00
2022-11-25T10:51:57.530Z,101170.28
2022-11-25T10:54:27.843Z,101176.34
2022-11-25T10:56:57.988Z,101173.53
2022-11-25T10:59:30.814Z,101177.78
2022-11-25T11:02:19.858Z,101177.59
2022-11-25T11:05:02.028Z,101182.78
2022-11-25T11:07:33.244Z,101183.81
2022-11-25T11:10:20.972Z,101187.16
2022-11-25T11:12:56.936Z,101189.19
2022-11-25T11:15:26.417Z,101195.25
2022-11-25T11:17:57.735Z,101190.75
2022-11-25T11:20:26.517Z,101193.03
2022-11-25T11:22:58.443Z,101191.19
2022-11-25T11:25:30.007Z,101183.13
2022-11-25T11:27:58.520Z,101188.97
2022-11-25T11:30:28.159Z,101191.56
2022-11-25T11:33:01.065Z,101191.94
2022-11-25T11:35:43.651Z,101197.97
2022-11-25T11:38:24.466Z,101196.53
2022-11-25T11:40:56.259Z,101202.56
2022-11-25T11:43:57.891Z,101205.16
2022-11-25T11:46:33.837Z,101205.59
2022-11-25T11:49:29.059Z,101212.53
2022-11-25T11:52:06.016Z,101212.63
2022-11-25T11:54:37.140Z,101214.25
2022-11-25T11:57:07.881Z,101216.94
2022-11-25T11:59:50.273Z,101217.63
2022-11-25T12:02:24.876Z,101211.34
2022-11-25T12:04:58.090Z,101204.91
2022-11-25T12:07:32.399Z,101203.84
2022-11-25T12:10:08.325Z,101208.81
2022-11-25T12:12:38.696Z,101202.25
2022-11-25T12:15:13.480Z,101211.13
2022-11-25T12:17:45.931Z,101214.44
2022-11-25T12:20:19.261Z,101206.06
2022-11-25T12:22:52.733Z,101207.44
2022-11-25T12:25:24.044Z,101211.34
2022-11-25T12:27:54.954Z,101218.38
2022-11-25T12:30:24.248Z,101219.44
2022-11-25T12:33:01.382Z,101220.31
2022-11-25T12:35:38.940Z,101221.19
2022-11-25T12:38:16.279Z,101222.81
2022-11-25T12:40:47.073Z,101227.63
2022-11-25T12:43:26.516Z,101223.44
2022-11-25T12:46:03.180Z,101222.16
2022-11-25T12:48:31.163Z,101227.16
2022-11-25T12:51:06.288Z,101230.72
2022-11-25T12:53:37.088Z,101230.38
2022-11-25T12:56:06.724Z,101236.53
2022-11-25T12:58:57.095Z,101243.53
2022-11-25T13:01:47.424Z,101243.53
2022-11-25T13:04:31.117Z,101237.19
2022-11-25T13:07:34.117Z,101244.22
2022-11-25T13:10:19.181Z,101246.94
2022-11-25T13:12:56.271Z,101247.28
2022-11-25T13:15:28.258Z,101251.47
2022-11-25T13:18:00.486Z,101246.31
2022-11-25T13:20:44.745Z,101249.31
2022-11-25T13:23:28.225Z,101253.00
2022-11-25T13:27:02.448Z,101260.97
2022-11-25T13:30:04.222Z,101266.28
2022-11-25T13:32:40.620Z,101259.34
2022-11-25T13:35:39.430Z,101267.78
2022-11-25T13:38:38.072Z,101267.69
2022-11-25T13:41:26.185Z,101276.53
2022-11-25T13:44:01.770Z,101277.41
2022-11-25T13:46:42.084Z,101278.34
2022-11-25T13:49:24.104Z,101285.59
2022-11-25T13:51:52.909Z,101284.72
2022-11-25T13:54:27.156Z,101289.16
2022-11-25T13:57:20.089Z,101296.31
2022-11-25T13:59:53.436Z,101290.47
2022-11-25T14:02:36.614Z,101299.00
2022-11-25T14:05:13.005Z,101297.81
2022-11-25T14:07:47.298Z,101307.94
2022-11-25T14:10:26.924Z,101311.16
2022-11-25T14:13:03.415Z,101308.59
2022-11-25T14:15:41.544Z,101314.94
2022-11-25T14:19:17.053Z,101312.16
2022-11-25T14:21:45.032Z,101313.13
2022-11-25T14:24:21.012Z,101308.50
2022-11-25T14:26:53.857Z,101319.19
2022-11-25T14:29:25.245Z,101307.53
2022-11-25T14:31:55.957Z,101310.41
2022-11-25T14:34:28.418Z,101311.97
2022-11-25T14:36:59.896Z,101316.59
2022-11-25T14:39:32.748Z,101316.47
2022-11-25T14:42:06.047Z,101323.91
2022-11-25T14:44:37.867Z,101337.94
2022-11-25T14:47:06.616Z,101341.19
2022-11-25T14:50:05.202Z,101339.81
2022-11-25T14:52:37.232Z,101347.81
2022-11-25T14:55:07.256Z,101348.00
2022-11-25T14:57:38.216Z,101345.50
2022-11-25T15:00:09.474Z,101345.22
2022-11-25T15:02:41.091Z,101353.00
2022-11-25T15:05:20.033Z,101357.72
2022-11-25T15:07:58.118Z,101356.22
2022-11-25T15:10:34.073Z,101357.16
2022-11-25T15:13:12.750Z,101350.91
2022-11-25T15:15:40.754Z,101364.50
2022-11-25T15:18:11.568Z,101363.75
2022-11-25T15:20:39.463Z,101367.75
2022-11-25T15:23:11.909Z,101373.47
2022-11-25T15:25:50.473Z,101379.41
2022-11-25T15:28:19.816Z,101378.31
2022-11-25T15:30:58.004Z,101371.94
2022-11-25T15:33:27.257Z,101376.47
2022-11-25T15:35:55.296Z,101379.41
2022-11-25T15:38:37.921Z,101382.94
2022-11-25T15:41:06.729Z,101383.19
2022-11-25T15:43:37.773Z,101388.88
2022-11-25T15:46:06.822Z,101387.56
2022-11-25T15:48:38.549Z,101389.13
2022-11-25T15:51:20.463Z,101390.94
2022-11-25T15:53:53.586Z,101395.88
2022-11-25T15:56:23.520Z,101404.84
2022-11-25T15:58:57.293Z,101406.97
2022-11-25T16:01:30.146Z,101403.84
2022-11-25T16:04:12.049Z,101413.47
2022-11-25T16:06:54.368Z,101422.00
2022-11-25T16:09:23.852Z,101419.38
2022-11-25T16:11:51.778Z,101423.13
2022-11-25T16:14:27.680Z,101436.81
2022-11-25T16:17:02.326Z,101429.22
2022-11-25T16:19:37.629Z,101440.00
2022-11-25T16:22:06.490Z,101440.75
2022-11-25T16:24:43.396Z,101440.31
2022-11-25T16:27:20.101Z,101442.50
2022-11-25T16:29:56.064Z,101444.41
2022-11-25T16:32:25.566Z,101442.50
2022-11-25T16:34:56.136Z,101455.03
2022-11-25T16:37:24.524Z,101451.47
2022-11-25T16:39:52.470Z,101454.84
2022-11-25T16:42:21.773Z,101455.03
2022-11-25T16:44:50.764Z,101463.13
2022-11-25T16:47:21.158Z,101468.59
2022-11-25T16:49:49.250Z,101469.59
2022-11-25T16:52:17.205Z,101478.25
2022-11-25T16:54:45.196Z,101481.03
2022-11-25T16:57:18.570Z,101487.47
2022-11-25T16:59:47.047Z,101490.66
2022-11-25T17:02:18.333Z,101486.22
2022-11-25T17:04:48.408Z,101489.91
2022-11-25T17:07:34.519Z,101496.81
2022-11-25T17:10:02.869Z,101491.72
2022-11-25T17:12:32.528Z,101494.44
2022-11-25T17:15:01.502Z,101506.09
2022-11-25T17:17:29.968Z,101506.66
2022-11-25T17:19:59.408Z,101505.59
2022-11-25T17:22:31.213Z,101503.66
2022-11-25T17:25:02.697Z,101507.03
2022-11-25T17:27:32.805Z,101510.50
2022-11-25T17:30:03.684Z,101517.22
2022-11-25T17:32:33.096Z,101520.22
2022-11-25T17:35:02.508Z,101515.25
2022-11-25T17:37:31.202Z,101522.34
2022-11-25T17:39:59.325Z,101517.53
2022-11-25T17:42:30.166Z,101529.78
2022-11-25T17:44:58.491Z,101529.16
2022-11-25T17:47:26.373Z,101534.47
2022-11-25T17:49:54.592Z,101537.75
2022-11-25T17:52:23.945Z,101542.56
2022-11-25T17:54:51.845Z,101548.72
2022-11-25T17:57:22.679Z,101550.56
2022-11-25T17:59:50.883Z,101547.09
2022-11-25T18:02:20.207Z,101554.41
2022-11-25T18:04:48.209Z,101549.31
2022-11-25T18:07:16.253Z,101559.91
2022-11-25T18:09:45.815Z,101558.72
2022-11-25T18:12:17.492Z,101564.13
2022-11-25T18:14:46.515Z,101571.56
2022-11-25T18:17:17.275Z,101571.16
2022-11-25T18:19:49.836Z,101574.25
2022-11-25T18:22:21.065Z,101578.56
2022-11-25T18:24:50.520Z,101571.63
2022-11-25T18:27:22.595Z,101583.69
2022-11-25T18:29:50.636Z,101585.59
2022-11-25T18:32:18.780Z,101585.31
2022-11-25T18:34:47.112Z,101589.75
2022-11-25T18:37:15.040Z,101596.78
2022-11-25T18:39:43.158Z,101593.78
2022-11-25T18:42:24.296Z,101598.13
2022-11-25T18:44:52.414Z,101603.72
2022-11-25T18:47:20.375Z,101607.59
2022-11-25T18:49:53.884Z,101616.94
2022-11-25T18:52:23.935Z,101622.34
2022-11-25T18:54:51.816Z,101618.09
2022-11-25T18:57:21.273Z,101618.84
2022-11-25T19:00:10.239Z,101625.88
2022-11-25T19:02:37.372Z,101638.09
2022-11-25T19:05:15.619Z,101642.06
2022-11-25T19:07:43.660Z,101645.44
2022-11-25T19:10:13.836Z,101646.31
2022-11-25T19:12:44.991Z,101647.06
2022-11-25T19:15:14.833Z,101647.75
2022-11-25T19:17:44.380Z,101664.31
2022-11-25T19:20:15.489Z,101653.72
2022-11-25T19:22:43.404Z,101659.28
2022-11-25T19:25:11.951Z,101666.16
2022-11-25T19:27:43.792Z,101657.88
2022-11-25T19:30:16.475Z,101668.84
2022-11-25T19:32:45.399Z,101670.00
2022-11-25T19:35:16.637Z,101675.22
2022-11-25T19:37:45.856Z,101678.50
2022-11-25T19:40:15.999Z,101686.47
2022-11-25T19:42:46.200Z,101683.28
2022-11-25T19:45:15.792Z,101690.59
2022-11-25T19:47:44.815Z,101693.63
2022-11-25T19:50:19.507Z,101700.16
2022-11-25T19:52:47.771Z,101709.53
2022-11-25T19:55:17.278Z,101715.78
2022-11-25T19:57:46.719Z,101717.25
2022-11-25T20:00:16.439Z,101729.44
2022-11-25T20:02:44.736Z,101723.69
2022-11-25T20:05:17.612Z,101735.81
2022-11-25T20:07:46.144Z,101737.84
2022-11-25T20:10:19.178Z,101738.81
2022-11-25T20:12:48.465Z,101747.66
2022-11-25T20:15:16.805Z,101743.72
2022-11-25T20:17:47.876Z,101754.94
2022-11-25T20:20:19.044Z,101746.22
2022-11-25T20:22:53.757Z,101753.47
2022-11-25T20:25:21.762Z,101755.09
2022-11-25T20:27:51.097Z,101763.78
2022-11-25T20:30:20.505Z,101764.06
2022-11-25T20:32:48.611Z,101770.81
2022-11-25T20:35:16.753Z,101774.16
2022-11-25T20:37:57.596Z,101777.03
2022-11-25T20:40:33.017Z,101783.72
2022-11-25T20:43:02.441Z,101783.84
2022-11-25T20:45:30.979Z,101782.09
2022-11-25T20:47:59.243Z,101782.66
2022-11-25T20:50:30.484Z,101788.84
2022-11-25T20:52:58.411Z,101798.34
2022-11-25T20:55:27.089Z,101804.97
2022-11-25T20:57:55.284Z,101805.72
2022-11-25T21:00:26.404Z,101812.75
2022-11-25T21:02:57.108Z,101819.50
2022-11-25T21:05:25.283Z,101818.78
2022-11-25T21:07:54.539Z,101828.59
2022-11-25T21:10:26.330Z,101830.72
2022-11-25T21:12:54.514Z,101831.31
2022-11-25T21:15:25.777Z,101833.53
2022-11-25T21:17:53.785Z,101844.47
2022-11-25T21:20:21.912Z,101843.13
2022-11-25T21:22:52.181Z,101843.53
2022-11-25T21:25:21.804Z,101847.72
2022-11-25T21:27:50.450Z,101863.91
2022-11-25T21:30:20.237Z,101858.47
2022-11-25T21:32:49.847Z,101867.16
2022-11-25T21:35:17.755Z,101874.72
2022-11-25T21:37:45.925Z,101874.13
2022-11-25T21:40:29.283Z,101879.28
2022-11-25T21:42:57.333Z,101869.59
2022-11-25T21:45:25.417Z,101875.00
2022-11-25T21:47:54.809Z,101877.78
2022-11-25T21:50:23.576Z,101875.53
2022-11-25T21:52:51.522Z,101882.91
2022-11-25T21:55:19.533Z,101874.47
2022-11-25T21:57:47.458Z,101884.56
2022-11-25T22:00:24.025Z,101892.81
2022-11-25T22:02:52.571Z,101895.50
2022-11-25T22:05:25.537Z,101893.84
2022-11-25T22:07:55.074Z,101894.28
2022-11-25T22:10:23.787Z,101902.50
2022-11-25T22:12:51.689Z,101900.41
2022-11-25T22:15:21.413Z,101902.22
2022-11-25T22:17:49.936Z,101904.25
2022-11-25T22:20:27.364Z,101905.59
2022-11-25T22:22:55.653Z,101909.38
2022-11-25T22:25:24.525Z,101909.81
2022-11-25T22:27:52.509Z,101918.84
2022-11-25T22:30:22.017Z,101917.19
2022-11-25T22:33:00.157Z,101929.00
2022-11-25T22:35:30.176Z,101915.81
2022-11-25T22:37:58.099Z,101920.03
2022-11-25T22:40:26.153Z,101922.09
2022-11-25T22:42:55.881Z,101940.38
2022-11-25T22:45:30.937Z,101934.06
2022-11-25T22:47:59.849Z,101934.38
2022-11-25T22:50:30.716Z,101938.19
2022-11-25T22:52:59.159Z,101942.13
2022-11-25T22:55:28.354Z,101947.78
2022-11-25T22:57:58.502Z,101953.84
2022-11-25T23:00:28.433Z,101956.38
2022-11-25T23:02:57.671Z,101952.72
2022-11-25T23:05:32.245Z,101968.34
2022-11-25T23:08:02.944Z,101968.41
2022-11-25T23:10:32.292Z,101973.31
2022-11-25T23:13:00.356Z,101972.06
2022-11-25T23:15:28.298Z,101974.91
2022-11-25T23:17:57.808Z,101974.91
2022-11-25T23:20:30.128Z,101983.22
2022-11-25T23:22:58.511Z,101981.75
2022-11-25T23:25:27.764Z,101983.75
2022-11-25T23:27:55.677Z,101991.16
2022-11-25T23:30:24.621Z,101984.81
2022-11-25T23:32:54.036Z,101990.69
2022-11-25T23:35:31.520Z,101996.75
2022-11-25T23:38:00.028Z,102004.13
2022-11-25T23:40:29.374Z,101999.91
2022-11-25T23:42:57.560Z,102005.47
2022-11-25T23:45:27.123Z,102012.91
2022-11-25T23:47:56.371Z,102013.72
2022-11-25T23:50:27.685Z,102024.53
2022-11-25T23:52:57.780Z,102034.34
2022-11-25T23:55:30.789Z,102032.84
2022-11-25T23:57:58.996Z,102034.41
